Time;durP1;ratioP1;P1;durP2;ratioP2;P2;SDS_P1;SDS_P2;PMS_P1;PMS_P2;Temp;Humidity;BMP_temperature;BMP_pressure;BME280_temperature;BME280_humidity;BME280_pressure;Samples;Min_cycle;Max_cycle;Signal;HPM_P1;HPM_P2
2022/07/14 00:01:21;;;;;;;3.92;3.63;;;;;;;25.72;80.55;100158.13;6252966;23;20065;-84
2022/07/14 00:03:47;;;;;;;3.92;3.60;;;;;;;25.77;80.39;100158.28;6226142;23;20008;-83
2022/07/14 00:06:13;;;;;;;7.38;3.50;;;;;;;25.69;80.68;100157.53;6253524;23;20455;-84
2022/07/14 00:08:39;;;;;;;3.90;3.60;;;;;;;25.27;82.95;100161.13;6253518;23;20060;-86
2022/07/14 00:11:05;;;;;;;3.78;3.40;;;;;;;25.29;83.33;100159.00;6254431;23;20012;-84
2022/07/14 00:13:32;;;;;;;6.75;3.70;;;;;;;25.28;83.18;100157.34;6255296;23;20008;-86
2022/07/14 00:15:57;;;;;;;4.55;3.72;;;;;;;25.36;82.60;100154.34;6222806;23;20004;-86
2022/07/14 00:18:23;;;;;;;3.72;3.53;;;;;;;25.39;82.49;100159.28;6249320;23;20079;-87
2022/07/14 00:20:49;;;;;;;7.03;3.63;;;;;;;25.38;82.25;100163.06;6248245;23;20015;-87
2022/07/14 00:25:43;;;;;;;6.10;3.42;;;;;;;25.21;83.96;100162.81;6106916;23;20076;-81
2022/07/14 00:28:08;;;;;;;6.38;3.58;;;;;;;25.23;83.71;100154.50;6152545;23;20312;-83
2022/07/14 00:30:34;;;;;;;4.13;3.45;;;;;;;25.18;84.37;100162.44;6153235;23;20014;-80
2022/07/14 00:32:59;;;;;;;6.50;4.20;;;;;;;25.14;84.82;100166.66;6152827;23;20446;-80
2022/07/14 00:35:25;;;;;;;4.85;3.63;;;;;;;25.14;85.20;100163.94;6153521;23;20017;-81
2022/07/14 00:37:50;;;;;;;4.30;3.50;;;;;;;25.14;85.71;100166.66;6151241;23;20010;-81
2022/07/14 00:40:16;;;;;;;4.47;3.80;;;;;;;25.21;85.29;100167.41;6150477;23;20848;-80
2022/07/14 00:42:47;;;;;;;6.05;4.40;;;;;;;25.15;85.80;100157.50;6152858;23;20021;-81
2022/07/14 00:45:14;;;;;;;7.97;4.00;;;;;;;25.10;86.09;100162.72;6152857;23;20057;-81
2022/07/14 00:47:41;;;;;;;9.55;4.07;;;;;;;25.05;86.97;100170.66;6152765;23;20006;-81
2022/07/14 00:50:08;;;;;;;4.60;4.15;;;;;;;25.05;87.00;100162.56;6126423;23;20115;-81
2022/07/14 00:52:34;;;;;;;6.45;4.03;;;;;;;25.06;87.26;100161.53;6150945;23;20009;-82
2022/07/14 00:55:00;;;;;;;4.90;3.85;;;;;;;24.99;88.05;100158.03;6152488;23;20033;-81
2022/07/14 00:57:26;;;;;;;4.88;4.18;;;;;;;25.01;88.17;100162.19;6152068;23;20013;-81
2022/07/14 00:59:52;;;;;;;4.68;4.00;;;;;;;25.03;88.37;100156.56;6151915;23;20010;-82
2022/07/14 01:02:18;;;;;;;5.20;3.88;;;;;;;25.05;88.36;100155.28;6152959;23;20396;-81
2022/07/14 01:04:48;;;;;;;4.13;3.83;;;;;;;25.06;88.45;100158.81;6152444;23;20013;-81
2022/07/14 01:07:14;;;;;;;4.55;4.18;;;;;;;25.02;88.76;100146.81;6152975;23;20005;-81
2022/07/14 01:09:43;;;;;;;6.90;4.43;;;;;;;25.03;88.62;100151.19;6152259;23;20382;-80
2022/07/14 01:12:10;;;;;;;4.57;4.25;;;;;;;25.02;88.69;100154.91;6125939;23;20119;-82
2022/07/14 01:14:37;;;;;;;5.05;4.65;;;;;;;25.00;88.80;100143.50;6152132;23;20009;-80
2022/07/14 01:17:03;;;;;;;6.97;5.13;;;;;;;24.98;88.81;100145.59;6101593;23;20116;-81
2022/07/14 01:19:29;;;;;;;5.28;4.85;;;;;;;24.79;90.06;100137.44;6153165;23;20001;-82
2022/07/14 01:21:56;;;;;;;5.30;4.90;;;;;;;24.72;90.16;100142.06;6126377;23;20147;-81
2022/07/14 01:24:23;;;;;;;5.35;4.82;;;;;;;24.71;90.46;100140.41;6125277;23;20021;-82
2022/07/14 01:26:50;;;;;;;6.22;4.82;;;;;;;24.75;90.02;100135.38;6126498;23;20057;-80
2022/07/14 01:29:16;;;;;;;7.82;4.18;;;;;;;24.68;90.67;100146.22;6126167;23;20084;-81
2022/07/14 01:31:41;;;;;;;4.80;4.40;;;;;;;24.59;90.95;100142.16;6127150;23;20021;-81
2022/07/14 01:34:07;;;;;;;6.90;4.80;;;;;;;24.68;90.59;100140.84;6153001;23;20006;-80
2022/07/14 01:36:33;;;;;;;4.63;4.22;;;;;;;24.68;90.39;100124.66;6126748;23;20013;-80
2022/07/14 01:38:59;;;;;;;6.22;5.00;;;;;;;24.73;89.75;100124.84;6152070;23;20454;-80
2022/07/14 01:41:24;;;;;;;4.72;4.40;;;;;;;24.74;89.57;100126.47;6152389;23;20017;-82
2022/07/14 01:43:50;;;;;;;5.32;4.30;;;;;;;24.73;89.51;100127.53;6126930;23;20010;-81
2022/07/14 01:46:16;;;;;;;6.18;4.38;;;;;;;24.73;89.61;100122.13;6150805;23;20465;-82
2022/07/14 01:48:41;;;;;;;5.00;4.53;;;;;;;24.73;89.71;100127.53;6151297;23;20001;-81
2022/07/14 01:51:08;;;;;;;5.45;4.95;;;;;;;24.73;89.98;100122.13;6125754;23;20023;-82
2022/07/14 01:53:34;;;;;;;5.60;4.97;;;;;;;24.73;90.02;100119.44;6126851;23;20009;-81
2022/07/14 01:56:00;;;;;;;5.97;5.35;;;;;;;24.68;90.43;100113.84;6126112;23;20015;-83
2022/07/14 01:58:26;;;;;;;5.13;4.70;;;;;;;24.59;91.30;100115.19;6151250;23;20017;-81
2022/07/14 02:03:37;;;;;;;7.57;5.20;;;;;;;24.48;92.11;100110.50;6153622;23;20390;-81
2022/07/14 02:06:03;;;;;;;5.95;4.93;;;;;;;24.48;92.33;100110.50;6126923;23;20024;-81
2022/07/14 02:08:29;;;;;;;7.93;5.07;;;;;;;24.43;92.90;100108.47;6128417;23;20607;-81
2022/07/14 02:13:39;;;;;;;6.20;4.90;;;;;;;24.48;92.54;100118.59;6152346;23;20022;-81
2022/07/14 02:16:08;;;;;;;6.45;5.32;;;;;;;24.45;93.10;100108.22;6126482;23;20005;-80
2022/07/14 02:18:34;;;;;;;7.07;5.03;;;;;;;24.45;92.86;100100.13;6126601;23;20014;-82
2022/07/14 02:21:00;;;;;;;6.00;5.03;;;;;;;24.47;93.12;100111.53;6150836;23;20483;-82
2022/07/14 02:23:25;;;;;;;11.93;5.50;;;;;;;24.26;94.76;100103.81;6124651;23;20025;-82
2022/07/14 02:25:51;;;;;;;7.70;5.50;;;;;;;24.07;95.83;100106.41;6123172;23;20338;-81
2022/07/14 02:28:17;;;;;;;5.97;5.22;;;;;;;24.18;95.41;100101.34;6095992;23;20057;-81
2022/07/14 02:30:44;;;;;;;9.13;5.40;;;;;;;24.24;95.07;100101.34;6072581;23;20428;-82
2022/07/14 02:33:10;;;;;;;5.47;4.78;;;;;;;24.34;94.50;100101.69;6123005;23;20014;-82
2022/07/14 02:35:36;;;;;;;5.95;5.32;;;;;;;24.40;94.24;100099.97;6123437;23;20014;-81
2022/07/14 02:38:02;;;;;;;6.10;5.50;;;;;;;24.46;93.79;100101.78;6122655;23;20010;-83
2022/07/14 02:40:28;;;;;;;5.25;4.85;;;;;;;24.44;93.53;100106.59;6123174;23;20013;-82
2022/07/14 02:42:54;;;;;;;5.68;5.20;;;;;;;24.02;94.86;100105.41;6096444;23;20021;-83
2022/07/14 02:45:19;;;;;;;6.03;5.25;;;;;;;23.78;96.29;100101.59;6096127;23;20073;-82
2022/07/14 02:47:45;;;;;;;5.45;4.68;;;;;;;23.80;95.91;100110.28;6096779;23;20020;-82
2022/07/14 02:50:11;;;;;;;5.53;5.13;;;;;;;23.47;97.19;100106.91;6096641;23;20006;-82
2022/07/14 02:52:38;;;;;;;5.55;5.15;;;;;;;23.31;98.25;100110.03;6097247;23;20021;-82
2022/07/14 02:55:05;;;;;;;5.70;4.82;;;;;;;23.44;97.70;100099.22;6073065;23;20009;-84
2022/07/14 02:57:32;;;;;;;5.30;4.90;;;;;;;23.41;97.90;100105.84;6097300;23;20006;-83
2022/07/14 02:59:58;;;;;;;6.70;5.38;;;;;;;23.25;99.00;100101.78;6120805;23;20006;-84
2022/07/14 03:02:25;;;;;;;6.10;4.65;;;;;;;23.34;98.06;100106.91;6096984;23;20064;-84
2022/07/14 03:04:51;;;;;;;6.28;5.45;;;;;;;23.37;98.20;100109.19;6123195;23;20010;-84
2022/07/14 03:07:17;;;;;;;5.15;4.72;;;;;;;23.47;97.41;100114.97;6121612;23;20060;-82
2022/07/14 03:09:43;;;;;;;5.40;5.00;;;;;;;23.49;97.24;100112.91;6096550;23;20009;-81
2022/07/14 03:12:09;;;;;;;5.20;4.82;;;;;;;23.46;97.74;100119.53;6122492;23;20454;-81
2022/07/14 03:14:38;;;;;;;6.10;5.23;;;;;;;23.29;98.78;100118.31;6096307;23;20043;-81
2022/07/14 03:17:04;;;;;;;6.15;4.80;;;;;;;23.23;99.28;100111.91;6095761;23;20242;-81
2022/07/14 03:19:29;;;;;;;6.22;5.10;;;;;;;23.15;99.58;100117.53;6096691;23;20475;-80
2022/07/14 03:21:56;;;;;;;5.70;4.88;;;;;;;23.09;99.46;100112.97;6096762;23;20351;-82
2022/07/14 03:24:21;;;;;;;5.90;5.05;;;;;;;23.04;99.89;100123.56;6135109;23;20014;-81
2022/07/14 03:26:50;;;;;;;5.18;4.68;;;;;;;23.06;99.58;100124.19;6150073;23;20013;-81
2022/07/14 03:29:16;;;;;;;5.28;4.88;;;;;;;22.95;100.00;100124.00;6126689;23;20068;-81
2022/07/14 03:31:42;;;;;;;5.47;4.72;;;;;;;23.07;99.85;100120.44;6127349;23;20374;-81
2022/07/14 03:34:12;;;;;;;5.10;4.35;;;;;;;23.24;98.75;100116.28;6126903;23;20020;-82
2022/07/14 03:36:39;;;;;;;7.28;4.70;;;;;;;23.36;98.13;100112.91;6127947;23;20010;-81
2022/07/14 03:39:05;;;;;;;5.05;4.47;;;;;;;23.43;97.75;100102.97;6127434;23;20013;-82
2022/07/14 03:41:31;;;;;;;6.65;4.63;;;;;;;23.52;97.16;100107.09;6128196;23;20415;-82
2022/07/14 03:43:57;;;;;;;5.82;4.40;;;;;;;23.53;96.98;100123.03;6153962;23;20013;-82
2022/07/14 03:46:23;;;;;;;5.63;4.90;;;;;;;23.59;96.51;100118.66;6127620;23;20616;-82
2022/07/14 03:49:00;;;;;;;7.20;4.80;;;;;;;23.36;97.79;100119.13;6151816;23;20018;-81
2022/07/14 03:51:26;;;;;;;5.25;4.75;;;;;;;23.36;98.08;100123.69;6152332;23;20014;-81
2022/07/14 03:53:52;;;;;;;4.72;4.43;;;;;;;23.40;97.90;100114.13;6127424;23;20017;-81
2022/07/14 03:56:18;;;;;;;5.07;4.68;;;;;;;23.41;97.88;100116.63;6152205;23;20020;-83
2022/07/14 03:58:45;;;;;;;5.82;4.25;;;;;;;23.50;97.09;100114.56;6152384;23;20100;-81
2022/07/14 04:01:13;;;;;;;4.97;4.40;;;;;;;23.58;96.90;100111.63;6151782;23;20032;-80
2022/07/14 04:03:40;;;;;;;6.18;4.47;;;;;;;23.63;96.40;100109.09;6127662;23;20002;-81
2022/07/14 04:06:06;;;;;;;4.55;4.22;;;;;;;23.68;96.51;100122.75;6127403;23;20013;-82
2022/07/14 04:08:31;;;;;;;5.10;4.70;;;;;;;23.71;96.19;100114.28;6154208;23;20448;-82
2022/07/14 04:11:00;;;;;;;8.93;5.38;;;;;;;23.67;96.50;100118.44;6151167;23;20071;-82
2022/07/14 04:13:26;;;;;;;6.07;5.40;;;;;;;23.60;96.80;100125.72;6128651;23;20026;-82
2022/07/14 04:15:51;;;;;;;5.65;5.03;;;;;;;23.58;96.73;100128.63;6152647;23;20018;-81
2022/07/14 04:18:17;;;;;;;5.47;4.97;;;;;;;23.43;97.46;100125.34;6127200;23;20024;-81
2022/07/14 04:20:48;;;;;;;5.80;4.88;;;;;;;23.20;98.78;100125.81;6126871;23;20014;-82
2022/07/14 04:23:13;;;;;;;6.90;5.65;;;;;;;22.85;100.00;100127.13;6127195;23;20454;-82
2022/07/14 04:25:40;;;;;;;8.80;5.60;;;;;;;22.87;100.00;100116.94;6127580;23;20020;-80
2022/07/14 04:28:05;;;;;;;6.22;5.60;;;;;;;22.68;100.00;100120.47;6153881;23;20140;-80
2022/07/14 04:30:31;;;;;;;5.97;5.57;;;;;;;22.71;100.00;100120.03;6127560;23;20006;-81
2022/07/14 04:32:56;;;;;;;7.32;6.20;;;;;;;22.82;100.00;100122.97;6126940;23;20021;-81
2022/07/14 04:35:23;;;;;;;6.05;5.65;;;;;;;22.98;100.00;100110.94;6151884;23;20064;-81
2022/07/14 04:37:49;;;;;;;6.07;5.30;;;;;;;23.11;100.00;100116.28;6128832;23;20013;-84
2022/07/14 04:40:20;;;;;;;6.40;5.80;;;;;;;23.20;100.00;100115.06;6136310;23;20013;-84
2022/07/14 04:42:46;;;;;;;5.70;5.15;;;;;;;23.33;99.81;100121.44;6153549;23;20081;-83
2022/07/14 04:45:12;;;;;;;8.63;5.60;;;;;;;23.43;99.50;100119.13;6127733;23;20037;-82
2022/07/14 04:47:38;;;;;;;6.13;5.63;;;;;;;23.40;99.92;100124.91;6174173;23;20025;-83
2022/07/14 04:52:50;;;;;;;8.35;5.82;;;;;;;23.49;99.76;100129.06;6176856;23;20057;-83
2022/07/14 04:55:48;;;;;;;7.22;6.47;;;;;;;23.56;99.53;100119.13;6131053;23;20017;-83
2022/07/14 04:58:32;;;;;;;7.55;6.10;;;;;;;23.53;99.78;100119.53;6155738;23;20060;-83
2022/07/14 05:00:59;;;;;;;7.20;6.50;;;;;;;23.59;99.51;100115.97;6129093;23;20033;-82
2022/07/14 05:03:29;;;;;;;7.72;6.88;;;;;;;23.61;99.65;100116.59;6127809;23;20037;-82
2022/07/14 05:05:55;;;;;;;8.18;6.35;;;;;;;23.70;99.50;100126.09;6127975;23;20017;-83
2022/07/14 05:08:21;;;;;;;7.78;5.90;;;;;;;23.68;99.30;100117.38;6127611;23;20010;-81
2022/07/14 05:10:49;;;;;;;7.70;5.93;;;;;;;23.65;99.66;100120.50;6153509;23;20331;-81
2022/07/14 05:13:15;;;;;;;6.75;6.10;;;;;;;23.60;100.00;100115.78;6126888;23;20018;-81
2022/07/14 05:15:42;;;;;;;6.65;6.13;;;;;;;23.67;100.00;100121.13;6103394;23;20442;-80
2022/07/14 05:18:08;;;;;;;11.52;6.38;;;;;;;23.70;99.83;100120.69;6152090;23;20021;-79
2022/07/14 05:20:34;;;;;;;7.70;6.75;;;;;;;23.72;100.00;100124.00;6150848;23;20062;-80
2022/07/14 05:23:01;;;;;;;7.10;6.47;;;;;;;23.76;100.00;100119.84;6151240;23;20125;-80
2022/07/14 05:25:27;;;;;;;8.15;6.88;;;;;;;23.80;100.00;100115.66;6126494;23;20014;-81
2022/07/14 05:27:52;;;;;;;8.73;6.72;;;;;;;23.88;100.00;100117.28;6151432;23;20048;-80
2022/07/14 05:30:38;;;;;;;12.43;6.38;;;;;;;23.98;99.61;100110.38;6152387;23;20029;-80
2022/07/14 05:33:04;;;;;;;7.65;6.85;;;;;;;23.99;99.22;100112.03;6126804;23;20017;-79
2022/07/14 05:35:31;;;;;;;7.78;6.88;;;;;;;24.02;99.37;100119.72;6127134;23;20021;-79
2022/07/14 05:37:58;;;;;;;7.95;6.55;;;;;;;24.04;99.13;100117.59;6126102;23;20020;-81
2022/07/14 05:40:25;;;;;;;7.95;7.25;;;;;;;24.07;98.81;100117.19;6126526;23;20033;-80
2022/07/14 05:42:51;;;;;;;8.38;7.47;;;;;;;24.12;98.43;100107.63;6102600;23;20013;-80
2022/07/14 05:45:17;;;;;;;8.30;7.13;;;;;;;24.16;98.49;100115.03;6126255;23;20032;-81
2022/07/14 05:47:42;;;;;;;8.50;7.40;;;;;;;24.18;98.19;100117.53;6126860;23;20101;-80
2022/07/14 05:50:09;;;;;;;11.65;8.20;;;;;;;24.18;98.42;100114.84;6126575;23;20312;-80
2022/07/14 05:52:35;;;;;;;10.10;8.25;;;;;;;24.14;98.84;100119.03;6125579;23;20018;-80
2022/07/14 05:55:01;;;;;;;14.13;12.68;;;;;;;24.02;100.00;100114.31;6125262;23;20015;-81
2022/07/14 05:57:28;;;;;;;13.68;12.38;;;;;;;24.08;100.00;100113.47;6126339;23;20025;-83
2022/07/14 05:59:53;;;;;;;14.35;12.95;;;;;;;24.18;100.00;100122.94;6153311;23;20017;-82
2022/07/14 06:02:19;;;;;;;16.65;14.93;;;;;;;24.28;100.00;100128.69;6151155;23;20596;-82
2022/07/14 06:04:45;;;;;;;15.85;14.02;;;;;;;24.29;99.81;100120.38;6101827;23;20041;-82
2022/07/14 06:07:10;;;;;;;18.08;16.10;;;;;;;24.32;100.00;100119.13;6149984;23;20013;-82
2022/07/14 06:09:39;;;;;;;17.65;15.98;;;;;;;24.16;100.00;100120.44;6125864;23;20517;-83
2022/07/14 06:12:06;;;;;;;16.73;15.30;;;;;;;24.33;100.00;100121.59;6150321;23;20014;-82
2022/07/14 06:14:35;;;;;;;16.45;14.68;;;;;;;24.32;100.00;100113.75;6127021;23;20025;-83
2022/07/14 06:17:01;;;;;;;18.45;13.65;;;;;;;24.38;100.00;100123.66;6152691;23;20032;-77
2022/07/14 06:19:26;;;;;;;17.15;13.10;;;;;;;24.48;100.00;100118.59;6125914;23;20443;-78
2022/07/14 06:21:52;;;;;;;13.18;11.88;;;;;;;24.38;100.00;100121.78;6152178;23;20088;-79
2022/07/14 06:24:17;;;;;;;11.93;10.93;;;;;;;24.44;100.00;100112.00;6151793;23;20021;-78
2022/07/14 06:26:44;;;;;;;11.13;10.13;;;;;;;24.60;100.00;100113.31;6126421;23;20013;-78
2022/07/14 06:29:10;;;;;;;10.95;9.95;;;;;;;24.67;100.00;100114.91;6125549;23;20009;-78
2022/07/14 06:31:37;;;;;;;12.20;10.18;;;;;;;24.79;99.57;100121.25;6150389;23;20021;-77
2022/07/14 06:34:05;;;;;;;11.90;10.63;;;;;;;24.87;98.94;100122.81;6125057;23;20084;-78
2022/07/14 06:36:40;;;;;;;10.40;9.50;;;;;;;25.01;98.47;100126.25;6125688;23;20016;-77
2022/07/14 06:39:07;;;;;;;10.98;9.90;;;;;;;25.08;97.92;100118.94;6149244;23;20017;-78
2022/07/14 06:41:33;;;;;;;11.48;9.15;;;;;;;25.19;97.55;100115.47;6124771;23;20006;-77
2022/07/14 06:43:58;;;;;;;11.52;9.70;;;;;;;25.27;97.01;100124.09;6124859;23;20009;-77
2022/07/14 06:46:24;;;;;;;11.40;10.35;;;;;;;25.36;96.97;100126.53;6123932;23;20371;-75
2022/07/14 06:48:50;;;;;;;12.93;11.77;;;;;;;25.32;97.32;100120.75;6149297;23;20018;-75
2022/07/14 06:51:15;;;;;;;11.43;10.35;;;;;;;25.40;96.49;100117.72;6150504;23;20009;-76
2022/07/14 06:53:42;;;;;;;15.18;11.40;;;;;;;25.46;96.08;100114.13;6124363;23;20611;-76
2022/07/14 06:56:07;;;;;;;11.23;10.27;;;;;;;25.57;95.66;100117.97;6150641;23;20013;-74
2022/07/14 06:58:33;;;;;;;11.90;10.68;;;;;;;25.67;94.65;100119.13;6124661;23;20020;-74
2022/07/14 07:00:58;;;;;;;13.48;10.68;;;;;;;25.77;93.56;100123.13;6150670;23;20009;-75
2022/07/14 07:03:25;;;;;;;13.15;11.25;;;;;;;25.88;93.42;100119.66;6125404;23;20064;-76
2022/07/14 07:08:34;;;;;;;9.65;8.75;;;;;;;26.05;90.81;100126.06;6151215;23;20013;-74
2022/07/14 07:10:59;;;;;;;11.20;9.25;;;;;;;26.12;89.58;100121.41;6150740;23;20386;-76
2022/07/14 07:13:26;;;;;;;9.57;7.82;;;;;;;26.22;88.67;100121.66;6151576;23;20447;-76
2022/07/14 07:15:52;;;;;;;8.57;7.25;;;;;;;26.31;88.68;100120.31;6151081;23;20085;-75
2022/07/14 07:18:18;;;;;;;10.48;8.98;;;;;;;26.38;87.42;100115.66;6149798;23;20084;-75
2022/07/14 07:20:44;;;;;;;9.80;8.82;;;;;;;26.46;87.11;100123.41;6149786;23;20010;-74
2022/07/14 07:23:10;;;;;;;10.38;7.30;;;;;;;26.56;86.22;100122.03;6149356;23;20008;-74
2022/07/14 07:25:35;;;;;;;9.45;7.43;;;;;;;26.64;85.58;100125.19;6149306;23;20136;-75
2022/07/14 07:28:01;;;;;;;8.68;7.95;;;;;;;26.69;85.13;100119.06;6149202;23;20457;-75
2022/07/14 07:30:27;;;;;;;8.10;7.50;;;;;;;26.76;85.31;100111.66;6149798;23;20438;-74
2022/07/14 07:32:52;;;;;;;11.60;8.07;;;;;;;26.85;84.77;100104.88;6149891;23;20763;-76
2022/07/14 07:35:19;;;;;;;20.08;6.43;;;;;;;26.92;79.35;100108.28;6148684;23;20016;-74
2022/07/14 07:37:45;;;;;;;5.93;5.30;;;;;;;26.98;78.97;100101.94;6149095;23;20490;-75
2022/07/14 07:40:11;;;;;;;8.52;5.43;;;;;;;27.06;79.50;100101.56;6150373;23;20056;-76
2022/07/14 07:42:36;;;;;;;9.68;4.90;;;;;;;27.13;77.05;100102.28;6152110;23;20331;-76
2022/07/14 07:45:02;;;;;;;5.57;4.70;;;;;;;27.20;75.78;100088.63;6150522;23;20071;-75
2022/07/14 07:47:28;;;;;;;6.20;5.28;;;;;;;27.26;74.87;100091.19;6151539;23;20006;-76
2022/07/14 07:49:54;;;;;;;6.75;6.10;;;;;;;27.34;75.37;100086.44;6151631;23;20017;-75
2022/07/14 07:52:20;;;;;;;7.53;5.03;;;;;;;27.42;74.59;100083.38;6150821;23;20017;-74
2022/07/14 07:54:47;;;;;;;7.57;4.90;;;;;;;27.53;72.73;100079.84;6124173;23;20018;-77
2022/07/14 07:57:13;;;;;;;5.95;4.68;;;;;;;27.61;71.77;100082.19;6149664;23;20092;-75
2022/07/14 07:59:39;;;;;;;4.50;4.10;;;;;;;27.67;71.75;100081.22;6150696;23;20081;-75
2022/07/14 08:02:05;;;;;;;5.22;3.92;;;;;;;27.72;71.47;100078.59;6150207;23;20006;-76
2022/07/14 08:04:32;;;;;;;7.35;5.57;;;;;;;27.75;72.83;100074.56;6150499;23;20060;-75
2022/07/14 08:06:57;;;;;;;6.53;5.80;;;;;;;27.78;72.81;100077.63;6150876;23;20375;-74
2022/07/14 08:09:23;;;;;;;5.78;5.10;;;;;;;27.77;72.85;100075.97;6150431;23;20045;-77
2022/07/14 08:11:48;;;;;;;5.10;4.70;;;;;;;27.79;72.32;100070.31;6148121;23;20446;-75
2022/07/14 08:16:59;;;;;;;9.20;5.15;;;;;;;27.88;71.78;100055.28;6151874;23;20041;-75
2022/07/14 08:19:25;;;;;;;7.40;5.40;;;;;;;27.90;71.85;100062.13;6153053;23;20017;-74
2022/07/14 08:21:50;;;;;;;5.90;5.50;;;;;;;27.92;72.64;100062.69;6151872;23;20453;-73
2022/07/14 08:24:18;;;;;;;6.32;5.45;;;;;;;27.95;73.26;100056.78;6152416;23;20443;-75
2022/07/14 08:26:45;;;;;;;7.05;5.50;;;;;;;27.98;72.58;100056.28;6152977;23;20442;-75
2022/07/14 08:29:10;;;;;;;6.07;5.47;;;;;;;28.02;72.67;100062.88;6152214;23;20447;-74
2022/07/14 08:31:36;;;;;;;8.80;6.25;;;;;;;28.05;72.69;100056.97;6125054;23;20014;-75
2022/07/14 08:34:01;;;;;;;6.47;5.75;;;;;;;28.09;72.53;100058.13;6152443;23;20017;-74
2022/07/14 08:36:27;;;;;;;10.13;4.45;;;;;;;28.13;72.77;100054.91;6126680;23;20080;-75
2022/07/14 08:38:52;;;;;;;6.57;4.93;;;;;;;28.15;72.17;100055.53;6152884;23;20018;-75
2022/07/14 08:41:18;;;;;;;5.05;4.57;;;;;;;28.14;72.26;100053.91;6152185;23;20017;-75
2022/07/14 08:43:45;;;;;;;5.57;4.60;;;;;;;28.13;72.45;100046.78;6152225;23;20012;-75
2022/07/14 08:46:10;;;;;;;8.90;5.25;;;;;;;28.14;72.35;100048.47;6151619;23;20033;-75
2022/07/14 08:48:37;;;;;;;5.05;4.55;;;;;;;28.15;72.38;100050.13;6152498;23;20438;-75
2022/07/14 08:51:04;;;;;;;5.57;4.95;;;;;;;28.16;72.46;100051.78;6151860;23;20022;-75
2022/07/14 08:53:29;;;;;;;7.53;5.07;;;;;;;28.14;72.60;100048.47;6152407;23;20016;-74
2022/07/14 08:55:58;;;;;;;5.53;5.03;;;;;;;28.11;72.85;100050.56;6152508;23;20022;-75
2022/07/14 08:58:23;;;;;;;5.43;4.90;;;;;;;28.09;72.76;100054.59;6152254;23;20005;-74
2022/07/14 09:00:49;;;;;;;8.65;4.70;;;;;;;28.11;73.12;100050.56;6152212;23;20063;-74
2022/07/14 09:03:15;;;;;;;6.57;5.50;;;;;;;28.17;72.45;100047.97;6151775;23;20016;-73
2022/07/14 09:05:42;;;;;;;6.95;4.57;;;;;;;28.18;72.17;100050.44;6152345;23;20550;-74
2022/07/14 09:08:07;;;;;;;4.60;4.25;;;;;;;28.23;71.69;100044.25;6151916;23;20175;-75
2022/07/14 09:10:33;;;;;;;5.15;4.68;;;;;;;28.31;68.79;100046.56;6126102;23;20017;-75
2022/07/14 09:13:14;;;;;;;5.45;4.60;;;;;;;28.35;69.68;100036.88;6126062;23;20018;-74
2022/07/14 09:15:46;;;;;;;5.13;4.65;;;;;;;28.41;69.37;100033.16;6151960;23;20021;-77
2022/07/14 09:18:27;;;;;;;6.22;5.15;;;;;;;28.50;68.86;100035.22;6151735;23;20089;-77
2022/07/14 09:20:54;;;;;;;5.38;4.88;;;;;;;28.64;68.61;100029.44;6152408;23;20391;-77
2022/07/14 09:23:30;;;;;;;6.43;4.68;;;;;;;28.73;67.73;100036.97;6151422;23;20002;-76
2022/07/14 09:26:18;;;;;;;7.55;4.82;;;;;;;28.84;67.54;100024.34;6151838;23;20009;-77
2022/07/14 09:28:45;;;;;;;5.00;4.60;;;;;;;28.87;66.30;100021.94;6152574;23;20009;-77
2022/07/14 09:31:24;;;;;;;5.18;4.78;;;;;;;28.94;65.55;100021.75;6151281;23;20010;-76
2022/07/14 09:33:51;;;;;;;4.95;4.53;;;;;;;29.16;64.72;100021.78;6151910;23;20013;-76
2022/07/14 09:36:46;;;;;;;10.10;4.50;;;;;;;29.31;64.39;100022.78;6150360;23;20063;-75
2022/07/14 09:39:12;;;;;;;4.88;4.47;;;;;;;29.38;64.03;100017.19;6112810;23;20066;-75
2022/07/14 09:41:54;;;;;;;4.47;4.00;;;;;;;29.57;63.60;100021.19;6152648;23;20308;-74
2022/07/14 09:44:21;;;;;;;4.63;4.22;;;;;;;29.73;63.37;100030.34;6150779;23;20092;-74
2022/07/14 09:46:56;;;;;;;4.80;4.28;;;;;;;29.85;61.72;100019.31;6126311;23;20373;-76
2022/07/14 09:49:30;;;;;;;4.72;4.32;;;;;;;29.89;61.73;100017.69;6151768;23;20009;-77
2022/07/14 09:52:04;;;;;;;6.28;4.00;;;;;;;29.89;60.56;100018.53;6150837;23;20009;-74
2022/07/14 09:54:49;;;;;;;4.70;4.30;;;;;;;29.87;59.34;100020.66;6151800;23;20041;-75
2022/07/14 09:57:15;;;;;;;4.57;4.18;;;;;;;29.85;60.34;100022.03;6151852;23;20013;-76
2022/07/14 10:00:12;;;;;;;4.50;4.20;;;;;;;29.89;58.62;100018.53;6151223;23;20009;-76
2022/07/14 10:02:41;;;;;;;6.63;4.68;;;;;;;30.02;58.20;100017.31;6151678;23;20014;-76
2022/07/14 10:05:08;;;;;;;4.38;4.07;;;;;;;30.11;58.23;100013.03;6151413;23;20085;-74
2022/07/14 10:07:38;;;;;;;4.90;4.07;;;;;;;30.16;58.00;100012.25;6151818;23;20001;-77
2022/07/14 10:10:06;;;;;;;;;;;;;;;30.14;57.12;100012.53;6152156;23;20017;-75
2022/07/14 10:12:34;;;;;;;4.25;3.90;;;;;;;30.21;56.30;100002.25;6151350;23;20116;-75
2022/07/14 10:15:02;;;;;;;9.27;4.60;;;;;;;30.22;57.51;100001.13;6151631;23;20418;-75
2022/07/14 10:17:37;;;;;;;6.53;4.20;;;;;;;30.25;57.89;100010.69;6151514;23;20005;-76
2022/07/14 10:20:06;;;;;;;4.50;4.20;;;;;;;30.27;57.27;100009.38;6125165;23;20010;-74
2022/07/14 10:22:32;;;;;;;4.82;4.43;;;;;;;30.37;56.04;100006.72;6150497;23;20006;-74
2022/07/14 10:24:58;;;;;;;8.50;4.40;;;;;;;30.48;54.91;99997.56;6125708;23;20019;-74
2022/07/14 10:27:26;;;;;;;4.70;4.30;;;;;;;30.48;55.65;99997.56;6151557;23;20010;-75
2022/07/14 10:29:54;;;;;;;5.05;4.07;;;;;;;30.47;55.72;99987.72;6151169;23;20453;-76
2022/07/14 10:32:25;;;;;;;3.92;3.63;;;;;;;30.41;54.84;99988.75;6151131;23;20013;-75
2022/07/14 10:35:15;;;;;;;7.95;4.13;;;;;;;30.41;54.30;99988.75;6150369;23;20014;-75
2022/07/14 10:37:50;;;;;;;;;;;;;;;30.40;54.07;99984.38;6150506;23;20080;-77
2022/07/14 10:40:28;;;;;;;4.40;4.00;;;;;;;30.38;54.53;99978.41;6150446;23;19923;-76
2022/07/14 10:43:06;;;;;;;4.70;3.92;;;;;;;30.38;54.13;99983.84;6151473;23;20017;-77
2022/07/14 10:45:33;;;;;;;5.85;3.90;;;;;;;30.36;54.20;99980.56;6124845;23;20014;-76
2022/07/14 10:47:58;;;;;;;4.22;3.92;;;;;;;30.38;53.49;99978.41;6151315;23;20010;-76
2022/07/14 10:50:28;;;;;;;5.60;3.95;;;;;;;30.48;52.79;99973.03;6150102;23;20017;-76
2022/07/14 10:52:54;;;;;;;4.65;3.67;;;;;;;30.57;52.88;99969.84;6151453;23;20439;-76
2022/07/14 10:55:22;;;;;;;5.13;4.07;;;;;;;30.61;53.22;99971.75;6149916;23;20013;-77
2022/07/14 10:57:59;;;;;;;4.43;3.88;;;;;;;30.63;53.18;99975.03;6151471;23;20006;-76
2022/07/14 11:03:21;;;;;;;3.95;3.75;;;;;;;30.62;52.52;99967.13;6148229;23;20020;-77
2022/07/14 11:06:12;;;;;;;4.55;4.18;;;;;;;30.65;51.40;99966.59;6148705;23;20096;-77
2022/07/14 11:08:42;;;;;;;4.32;3.88;;;;;;;30.71;51.53;99965.53;6149343;23;20017;-78
2022/07/14 11:11:23;;;;;;;5.45;3.75;;;;;;;30.74;51.50;99965.84;6149058;23;20434;-78
2022/07/14 11:14:00;;;;;;;4.50;3.88;;;;;;;30.75;51.88;99972.13;6149426;23;20096;-78
2022/07/14 11:16:45;;;;;;;5.80;4.32;;;;;;;30.76;50.85;99960.13;6150166;23;20009;-78
2022/07/14 11:19:22;;;;;;;5.85;4.30;;;;;;;30.80;50.69;99963.97;6124896;23;20133;-78
2022/07/14 11:22:11;;;;;;;4.82;4.28;;;;;;;30.87;51.30;99953.63;6150724;23;20020;-78
2022/07/14 11:24:49;;;;;;;4.72;4.25;;;;;;;30.93;50.57;99960.72;6151015;23;20446;-78
2022/07/14 11:27:48;;;;;;;4.65;4.00;;;;;;;31.02;50.68;99950.97;6150289;23;20467;-77
2022/07/14 11:30:27;;;;;;;5.20;4.35;;;;;;;31.03;50.35;99949.91;6150467;23;20502;-79
2022/07/14 11:33:09;;;;;;;6.85;4.35;;;;;;;31.07;49.62;99948.28;6150976;23;20018;-78
2022/07/14 11:38:39;;;;;;;6.30;3.90;;;;;;;31.15;48.89;99934.16;6150958;23;20016;-78
2022/07/14 11:41:12;;;;;;;3.90;3.60;;;;;;;31.12;49.22;99934.69;6150626;23;20092;-78
2022/07/14 11:43:43;;;;;;;5.05;3.70;;;;;;;31.06;48.83;99924.03;6151019;23;20014;-78
2022/07/14 11:46:14;;;;;;;4.05;3.75;;;;;;;31.00;49.06;99925.06;6150663;23;20009;-78
2022/07/14 11:48:44;;;;;;;3.60;3.40;;;;;;;31.00;49.02;99925.88;6151158;23;20431;-77
2022/07/14 11:51:12;;;;;;;4.53;3.80;;;;;;;30.99;49.85;99926.97;6152291;23;20020;-79